sensor_id;sensor_type;location;lat;lon;timestamp;P1;durP1;ratioP1;P2;durP2;ratioP2
7383;SDS011;3733;47.994;8.820;2022-12-18T00:02:21;53.23;;;21.93;;
7383;SDS011;3733;47.994;8.820;2022-12-18T00:04:47;59.57;;;22.87;;
7383;SDS011;3733;47.994;8.820;2022-12-18T00:07:13;56.83;;;23.60;;
7383;SDS011;3733;47.994;8.820;2022-12-18T00:09:38;61.70;;;23.87;;
7383;SDS011;3733;47.994;8.820;2022-12-18T00:12:04;54.60;;;22.87;;
7383;SDS011;3733;47.994;8.820;2022-12-18T00:14:30;54.50;;;22.20;;
7383;SDS011;3733;47.994;8.820;2022-12-18T00:16:56;49.20;;;20.47;;
7383;SDS011;3733;47.994;8.820;2022-12-18T00:19:23;52.97;;;21.30;;
7383;SDS011;3733;47.994;8.820;2022-12-18T00:21:49;63.60;;;20.77;;
7383;SDS011;3733;47.994;8.820;2022-12-18T00:24:14;68.17;;;21.80;;
7383;SDS011;3733;47.994;8.820;2022-12-18T00:26:40;51.73;;;20.40;;
7383;SDS011;3733;47.994;8.820;2022-12-18T00:29:07;65.80;;;22.20;;
7383;SDS011;3733;47.994;8.820;2022-12-18T00:31:36;56.33;;;20.47;;
7383;SDS011;3733;47.994;8.820;2022-12-18T00:34:02;58.27;;;22.20;;
7383;SDS011;3733;47.994;8.820;2022-12-18T00:36:30;60.13;;;21.73;;
7383;SDS011;3733;47.994;8.820;2022-12-18T00:38:58;49.97;;;20.47;;
7383;SDS011;3733;47.994;8.820;2022-12-18T00:41:25;59.83;;;21.20;;
7383;SDS011;3733;47.994;8.820;2022-12-18T00:44:11;57.57;;;21.37;;
7383;SDS011;3733;47.994;8.820;2022-12-18T00:46:38;56.03;;;22.33;;
7383;SDS011;3733;47.994;8.820;2022-12-18T00:49:04;59.87;;;21.47;;
7383;SDS011;3733;47.994;8.820;2022-12-18T00:51:30;64.87;;;23.20;;
7383;SDS011;3733;47.994;8.820;2022-12-18T00:53:56;54.60;;;20.77;;
7383;SDS011;3733;47.994;8.820;2022-12-18T00:56:22;68.00;;;22.73;;
7383;SDS011;3733;47.994;8.820;2022-12-18T00:58:48;56.53;;;22.17;;
7383;SDS011;3733;47.994;8.820;2022-12-18T01:01:14;60.43;;;23.17;;
7383;SDS011;3733;47.994;8.820;2022-12-18T01:03:40;61.57;;;22.90;;
7383;SDS011;3733;47.994;8.820;2022-12-18T01:06:06;67.63;;;23.37;;
7383;SDS011;3733;47.994;8.820;2022-12-18T01:08:34;58.47;;;22.67;;
7383;SDS011;3733;47.994;8.820;2022-12-18T01:11:00;59.03;;;20.30;;
7383;SDS011;3733;47.994;8.820;2022-12-18T01:13:31;51.27;;;20.23;;
7383;SDS011;3733;47.994;8.820;2022-12-18T01:15:57;54.27;;;20.90;;
7383;SDS011;3733;47.994;8.820;2022-12-18T01:18:22;51.17;;;20.60;;
7383;SDS011;3733;47.994;8.820;2022-12-18T01:20:48;56.43;;;20.43;;
7383;SDS011;3733;47.994;8.820;2022-12-18T01:23:13;51.50;;;19.70;;
7383;SDS011;3733;47.994;8.820;2022-12-18T01:25:39;61.87;;;20.63;;
7383;SDS011;3733;47.994;8.820;2022-12-18T01:28:05;55.40;;;23.20;;
7383;SDS011;3733;47.994;8.820;2022-12-18T01:30:30;54.97;;;20.43;;
7383;SDS011;3733;47.994;8.820;2022-12-18T01:32:56;46.87;;;17.60;;
7383;SDS011;3733;47.994;8.820;2022-12-18T01:35:21;58.70;;;21.00;;
7383;SDS011;3733;47.994;8.820;2022-12-18T01:37:47;51.73;;;19.13;;
7383;SDS011;3733;47.994;8.820;2022-12-18T01:40:12;52.03;;;20.73;;
7383;SDS011;3733;47.994;8.820;2022-12-18T01:42:38;52.03;;;19.10;;
7383;SDS011;3733;47.994;8.820;2022-12-18T01:52:41;44.20;;;18.67;;
7383;SDS011;3733;47.994;8.820;2022-12-18T01:55:10;44.60;;;19.23;;
7383;SDS011;3733;47.994;8.820;2022-12-18T01:57:37;51.50;;;18.00;;
7383;SDS011;3733;47.994;8.820;2022-12-18T02:00:05;57.90;;;20.97;;
7383;SDS011;3733;47.994;8.820;2022-12-18T02:02:33;50.30;;;19.60;;
7383;SDS011;3733;47.994;8.820;2022-12-18T02:04:59;56.23;;;20.67;;
7383;SDS011;3733;47.994;8.820;2022-12-18T02:10:34;70.27;;;22.17;;
7383;SDS011;3733;47.994;8.820;2022-12-18T02:16:05;54.23;;;19.70;;
7383;SDS011;3733;47.994;8.820;2022-12-18T02:18:44;56.90;;;19.90;;
7383;SDS011;3733;47.994;8.820;2022-12-18T02:26:28;57.20;;;20.90;;
7383;SDS011;3733;47.994;8.820;2022-12-18T02:29:22;72.57;;;21.97;;
7383;SDS011;3733;47.994;8.820;2022-12-18T02:31:53;68.33;;;21.47;;
7383;SDS011;3733;47.994;8.820;2022-12-18T02:34:30;59.00;;;21.00;;
7383;SDS011;3733;47.994;8.820;2022-12-18T02:36:59;62.20;;;21.87;;
7383;SDS011;3733;47.994;8.820;2022-12-18T02:39:29;59.77;;;23.00;;
7383;SDS011;3733;47.994;8.820;2022-12-18T02:41:56;57.30;;;21.43;;
7383;SDS011;3733;47.994;8.820;2022-12-18T02:44:22;73.40;;;22.43;;
7383;SDS011;3733;47.994;8.820;2022-12-18T02:46:49;51.80;;;21.50;;
7383;SDS011;3733;47.994;8.820;2022-12-18T03:05:18;55.63;;;19.00;;
7383;SDS011;3733;47.994;8.820;2022-12-18T03:07:51;61.13;;;20.47;;
7383;SDS011;3733;47.994;8.820;2022-12-18T03:10:25;64.40;;;21.30;;
7383;SDS011;3733;47.994;8.820;2022-12-18T03:13:04;60.03;;;22.17;;
7383;SDS011;3733;47.994;8.820;2022-12-18T03:15:44;59.90;;;21.03;;
7383;SDS011;3733;47.994;8.820;2022-12-18T03:18:14;57.57;;;19.50;;
7383;SDS011;3733;47.994;8.820;2022-12-18T03:20:45;63.00;;;21.17;;
7383;SDS011;3733;47.994;8.820;2022-12-18T03:23:15;54.17;;;18.27;;
7383;SDS011;3733;47.994;8.820;2022-12-18T03:25:44;62.97;;;20.87;;
7383;SDS011;3733;47.994;8.820;2022-12-18T03:28:12;49.97;;;19.77;;
7383;SDS011;3733;47.994;8.820;2022-12-18T03:30:41;61.03;;;18.90;;
7383;SDS011;3733;47.994;8.820;2022-12-18T03:33:12;56.07;;;19.83;;
7383;SDS011;3733;47.994;8.820;2022-12-18T03:35:44;58.83;;;21.40;;
7383;SDS011;3733;47.994;8.820;2022-12-18T03:38:10;65.37;;;21.40;;
7383;SDS011;3733;47.994;8.820;2022-12-18T03:40:53;60.33;;;19.50;;
7383;SDS011;3733;47.994;8.820;2022-12-18T03:43:39;62.00;;;20.63;;
7383;SDS011;3733;47.994;8.820;2022-12-18T03:46:29;55.73;;;19.87;;
7383;SDS011;3733;47.994;8.820;2022-12-18T03:49:05;67.27;;;21.80;;
7383;SDS011;3733;47.994;8.820;2022-12-18T03:54:12;57.33;;;20.30;;
7383;SDS011;3733;47.994;8.820;2022-12-18T03:56:40;54.43;;;19.47;;
7383;SDS011;3733;47.994;8.820;2022-12-18T03:59:09;57.87;;;20.07;;
7383;SDS011;3733;47.994;8.820;2022-12-18T04:01:38;57.27;;;19.33;;
7383;SDS011;3733;47.994;8.820;2022-12-18T04:04:06;52.83;;;19.50;;
7383;SDS011;3733;47.994;8.820;2022-12-18T04:06:34;47.17;;;19.43;;
7383;SDS011;3733;47.994;8.820;2022-12-18T04:09:01;59.70;;;19.43;;
7383;SDS011;3733;47.994;8.820;2022-12-18T04:11:26;54.27;;;20.07;;
7383;SDS011;3733;47.994;8.820;2022-12-18T04:13:55;50.17;;;18.13;;
7383;SDS011;3733;47.994;8.820;2022-12-18T04:16:22;53.00;;;18.13;;
7383;SDS011;3733;47.994;8.820;2022-12-18T04:18:49;46.60;;;17.60;;
7383;SDS011;3733;47.994;8.820;2022-12-18T04:21:14;47.20;;;17.00;;
7383;SDS011;3733;47.994;8.820;2022-12-18T04:23:40;44.83;;;17.43;;
7383;SDS011;3733;47.994;8.820;2022-12-18T04:26:05;53.10;;;17.33;;
7383;SDS011;3733;47.994;8.820;2022-12-18T04:28:31;40.53;;;16.20;;
7383;SDS011;3733;47.994;8.820;2022-12-18T04:30:56;47.50;;;17.50;;
7383;SDS011;3733;47.994;8.820;2022-12-18T04:33:22;36.73;;;15.33;;
7383;SDS011;3733;47.994;8.820;2022-12-18T04:35:48;35.37;;;14.50;;
7383;SDS011;3733;47.994;8.820;2022-12-18T04:38:13;38.77;;;13.20;;
7383;SDS011;3733;47.994;8.820;2022-12-18T04:40:39;40.10;;;15.40;;
7383;SDS011;3733;47.994;8.820;2022-12-18T04:43:05;44.07;;;15.30;;
7383;SDS011;3733;47.994;8.820;2022-12-18T04:45:31;46.13;;;14.87;;
7383;SDS011;3733;47.994;8.820;2022-12-18T04:47:58;34.43;;;14.80;;
7383;SDS011;3733;47.994;8.820;2022-12-18T04:50:24;33.17;;;13.77;;
7383;SDS011;3733;47.994;8.820;2022-12-18T04:52:49;35.47;;;13.73;;
7383;SDS011;3733;47.994;8.820;2022-12-18T04:55:15;38.40;;;14.93;;
7383;SDS011;3733;47.994;8.820;2022-12-18T04:57:41;44.93;;;14.60;;
7383;SDS011;3733;47.994;8.820;2022-12-18T05:00:06;37.27;;;15.00;;
7383;SDS011;3733;47.994;8.820;2022-12-18T05:02:33;37.87;;;14.50;;
7383;SDS011;3733;47.994;8.820;2022-12-18T05:04:58;38.70;;;14.40;;
7383;SDS011;3733;47.994;8.820;2022-12-18T05:07:24;38.43;;;15.07;;
7383;SDS011;3733;47.994;8.820;2022-12-18T05:09:50;37.03;;;15.20;;
7383;SDS011;3733;47.994;8.820;2022-12-18T05:12:15;44.27;;;16.90;;
7383;SDS011;3733;47.994;8.820;2022-12-18T05:14:41;40.20;;;15.83;;
7383;SDS011;3733;47.994;8.820;2022-12-18T05:17:06;34.63;;;15.33;;
7383;SDS011;3733;47.994;8.820;2022-12-18T05:19:32;39.47;;;14.80;;
7383;SDS011;3733;47.994;8.820;2022-12-18T05:21:58;40.10;;;16.30;;
7383;SDS011;3733;47.994;8.820;2022-12-18T05:24:23;40.23;;;15.53;;
7383;SDS011;3733;47.994;8.820;2022-12-18T05:26:49;39.10;;;15.03;;
7383;SDS011;3733;47.994;8.820;2022-12-18T05:29:15;37.43;;;14.70;;
7383;SDS011;3733;47.994;8.820;2022-12-18T05:31:40;37.57;;;15.27;;
7383;SDS011;3733;47.994;8.820;2022-12-18T05:34:06;34.97;;;15.50;;
7383;SDS011;3733;47.994;8.820;2022-12-18T05:36:32;42.30;;;15.40;;
7383;SDS011;3733;47.994;8.820;2022-12-18T05:38:58;38.13;;;14.97;;
7383;SDS011;3733;47.994;8.820;2022-12-18T05:41:25;41.53;;;14.90;;
7383;SDS011;3733;47.994;8.820;2022-12-18T05:43:50;40.10;;;14.80;;
7383;SDS011;3733;47.994;8.820;2022-12-18T05:46:17;42.10;;;16.47;;
7383;SDS011;3733;47.994;8.820;2022-12-18T05:48:43;43.67;;;16.50;;
7383;SDS011;3733;47.994;8.820;2022-12-18T05:51:13;42.93;;;15.43;;
7383;SDS011;3733;47.994;8.820;2022-12-18T05:53:40;38.57;;;14.80;;
7383;SDS011;3733;47.994;8.820;2022-12-18T05:56:07;40.60;;;16.37;;
7383;SDS011;3733;47.994;8.820;2022-12-18T05:58:34;40.70;;;16.77;;
7383;SDS011;3733;47.994;8.820;2022-12-18T06:03:55;40.00;;;15.53;;
7383;SDS011;3733;47.994;8.820;2022-12-18T06:06:22;42.33;;;15.60;;
7383;SDS011;3733;47.994;8.820;2022-12-18T06:08:49;39.47;;;15.90;;
7383;SDS011;3733;47.994;8.820;2022-12-18T06:11:16;41.00;;;17.77;;
7383;SDS011;3733;47.994;8.820;2022-12-18T06:13:44;38.40;;;14.77;;
7383;SDS011;3733;47.994;8.820;2022-12-18T06:16:09;45.37;;;15.60;;
7383;SDS011;3733;47.994;8.820;2022-12-18T06:18:35;46.07;;;17.03;;
7383;SDS011;3733;47.994;8.820;2022-12-18T06:21:04;45.87;;;17.27;;
7383;SDS011;3733;47.994;8.820;2022-12-18T06:23:30;51.60;;;17.47;;
7383;SDS011;3733;47.994;8.820;2022-12-18T06:25:55;43.30;;;17.13;;
7383;SDS011;3733;47.994;8.820;2022-12-18T06:28:21;46.90;;;16.93;;
7383;SDS011;3733;47.994;8.820;2022-12-18T06:30:47;41.30;;;15.07;;
7383;SDS011;3733;47.994;8.820;2022-12-18T06:33:13;53.23;;;17.50;;
7383;SDS011;3733;47.994;8.820;2022-12-18T06:35:40;46.43;;;17.77;;
7383;SDS011;3733;47.994;8.820;2022-12-18T06:38:06;47.10;;;18.03;;
7383;SDS011;3733;47.994;8.820;2022-12-18T06:40:32;50.70;;;16.97;;
7383;SDS011;3733;47.994;8.820;2022-12-18T06:42:57;50.23;;;18.67;;
7383;SDS011;3733;47.994;8.820;2022-12-18T06:45:23;46.70;;;17.13;;
7383;SDS011;3733;47.994;8.820;2022-12-18T06:47:49;50.37;;;18.07;;
7383;SDS011;3733;47.994;8.820;2022-12-18T06:50:15;51.47;;;16.90;;
7383;SDS011;3733;47.994;8.820;2022-12-18T06:52:40;45.93;;;17.10;;
7383;SDS011;3733;47.994;8.820;2022-12-18T06:55:07;49.73;;;17.13;;
7383;SDS011;3733;47.994;8.820;2022-12-18T06:57:33;53.50;;;18.30;;
7383;SDS011;3733;47.994;8.820;2022-12-18T06:59:59;46.17;;;17.07;;
7383;SDS011;3733;47.994;8.820;2022-12-18T07:02:24;52.07;;;17.90;;
7383;SDS011;3733;47.994;8.820;2022-12-18T07:04:50;51.90;;;18.27;;
7383;SDS011;3733;47.994;8.820;2022-12-18T07:07:16;56.40;;;19.73;;
7383;SDS011;3733;47.994;8.820;2022-12-18T07:09:42;55.00;;;18.40;;
7383;SDS011;3733;47.994;8.820;2022-12-18T07:12:07;52.77;;;19.30;;
7383;SDS011;3733;47.994;8.820;2022-12-18T07:14:33;55.53;;;19.57;;
7383;SDS011;3733;47.994;8.820;2022-12-18T07:16:59;50.47;;;18.80;;
7383;SDS011;3733;47.994;8.820;2022-12-18T07:19:24;51.80;;;17.80;;
7383;SDS011;3733;47.994;8.820;2022-12-18T07:21:50;56.23;;;18.83;;
7383;SDS011;3733;47.994;8.820;2022-12-18T07:24:16;61.87;;;21.00;;
7383;SDS011;3733;47.994;8.820;2022-12-18T07:26:42;56.77;;;19.10;;
7383;SDS011;3733;47.994;8.820;2022-12-18T07:29:10;52.10;;;19.40;;
7383;SDS011;3733;47.994;8.820;2022-12-18T07:31:36;49.13;;;19.27;;
7383;SDS011;3733;47.994;8.820;2022-12-18T07:34:01;61.60;;;21.43;;
7383;SDS011;3733;47.994;8.820;2022-12-18T07:36:27;58.47;;;19.17;;
7383;SDS011;3733;47.994;8.820;2022-12-18T07:38:52;66.77;;;19.40;;
7383;SDS011;3733;47.994;8.820;2022-12-18T07:41:18;63.73;;;19.07;;
7383;SDS011;3733;47.994;8.820;2022-12-18T07:43:44;60.97;;;21.60;;
7383;SDS011;3733;47.994;8.820;2022-12-18T07:46:10;72.50;;;22.40;;
7383;SDS011;3733;47.994;8.820;2022-12-18T07:48:38;67.90;;;20.80;;
7383;SDS011;3733;47.994;8.820;2022-12-18T07:51:05;57.33;;;19.97;;
7383;SDS011;3733;47.994;8.820;2022-12-18T07:53:32;57.43;;;21.77;;
7383;SDS011;3733;47.994;8.820;2022-12-18T07:56:02;54.47;;;20.20;;
7383;SDS011;3733;47.994;8.820;2022-12-18T07:58:30;52.80;;;19.07;;
7383;SDS011;3733;47.994;8.820;2022-12-18T08:01:03;63.77;;;20.70;;
7383;SDS011;3733;47.994;8.820;2022-12-18T08:03:29;68.80;;;23.40;;
7383;SDS011;3733;47.994;8.820;2022-12-18T08:05:58;64.20;;;22.80;;
7383;SDS011;3733;47.994;8.820;2022-12-18T08:08:24;61.43;;;22.00;;
7383;SDS011;3733;47.994;8.820;2022-12-18T08:10:50;69.17;;;26.60;;
7383;SDS011;3733;47.994;8.820;2022-12-18T08:13:16;67.50;;;23.40;;
7383;SDS011;3733;47.994;8.820;2022-12-18T08:15:41;61.60;;;23.97;;
7383;SDS011;3733;47.994;8.820;2022-12-18T08:18:07;87.37;;;26.67;;
7383;SDS011;3733;47.994;8.820;2022-12-18T08:20:32;71.27;;;24.63;;
7383;SDS011;3733;47.994;8.820;2022-12-18T08:22:58;66.93;;;24.70;;
7383;SDS011;3733;47.994;8.820;2022-12-18T08:25:23;62.90;;;21.97;;
7383;SDS011;3733;47.994;8.820;2022-12-18T08:27:49;63.03;;;20.57;;
7383;SDS011;3733;47.994;8.820;2022-12-18T08:30:15;66.33;;;21.90;;
7383;SDS011;3733;47.994;8.820;2022-12-18T08:32:40;72.90;;;22.70;;
7383;SDS011;3733;47.994;8.820;2022-12-18T08:35:06;65.33;;;23.13;;
7383;SDS011;3733;47.994;8.820;2022-12-18T08:37:33;57.90;;;20.97;;
7383;SDS011;3733;47.994;8.820;2022-12-18T08:39:59;59.20;;;20.50;;
7383;SDS011;3733;47.994;8.820;2022-12-18T08:42:25;70.43;;;23.30;;
7383;SDS011;3733;47.994;8.820;2022-12-18T08:45:09;79.47;;;23.00;;
7383;SDS011;3733;47.994;8.820;2022-12-18T08:47:35;65.93;;;21.90;;
7383;SDS011;3733;47.994;8.820;2022-12-18T08:50:01;66.13;;;23.70;;
7383;SDS011;3733;47.994;8.820;2022-12-18T08:52:26;65.93;;;22.50;;
7383;SDS011;3733;47.994;8.820;2022-12-18T08:54:53;67.30;;;23.30;;
7383;SDS011;3733;47.994;8.820;2022-12-18T08:57:18;57.63;;;22.43;;
7383;SDS011;3733;47.994;8.820;2022-12-18T08:59:44;60.63;;;19.40;;
7383;SDS011;3733;47.994;8.820;2022-12-18T09:02:10;74.43;;;24.03;;
7383;SDS011;3733;47.994;8.820;2022-12-18T09:04:36;63.90;;;22.77;;
7383;SDS011;3733;47.994;8.820;2022-12-18T09:07:02;67.07;;;22.00;;
7383;SDS011;3733;47.994;8.820;2022-12-18T09:09:27;63.13;;;21.17;;
7383;SDS011;3733;47.994;8.820;2022-12-18T09:11:53;60.53;;;20.43;;
7383;SDS011;3733;47.994;8.820;2022-12-18T09:14:19;55.37;;;20.07;;
7383;SDS011;3733;47.994;8.820;2022-12-18T09:16:44;66.00;;;20.77;;
7383;SDS011;3733;47.994;8.820;2022-12-18T09:19:10;67.47;;;22.20;;
7383;SDS011;3733;47.994;8.820;2022-12-18T09:21:36;59.50;;;21.27;;
7383;SDS011;3733;47.994;8.820;2022-12-18T09:24:02;67.00;;;21.60;;
7383;SDS011;3733;47.994;8.820;2022-12-18T09:26:29;75.07;;;24.63;;
7383;SDS011;3733;47.994;8.820;2022-12-18T09:28:55;100.33;;;28.70;;
7383;SDS011;3733;47.994;8.820;2022-12-18T09:31:21;79.43;;;24.10;;
7383;SDS011;3733;47.994;8.820;2022-12-18T09:33:48;68.63;;;23.27;;
7383;SDS011;3733;47.994;8.820;2022-12-18T09:36:15;61.57;;;21.60;;
7383;SDS011;3733;47.994;8.820;2022-12-18T09:38:42;66.47;;;23.17;;
7383;SDS011;3733;47.994;8.820;2022-12-18T09:46:41;65.07;;;20.87;;
7383;SDS011;3733;47.994;8.820;2022-12-18T09:49:14;60.40;;;21.53;;
7383;SDS011;3733;47.994;8.820;2022-12-18T09:51:47;62.73;;;22.50;;
7383;SDS011;3733;47.994;8.820;2022-12-18T09:54:22;61.77;;;23.10;;
7383;SDS011;3733;47.994;8.820;2022-12-18T09:56:59;67.43;;;23.90;;
7383;SDS011;3733;47.994;8.820;2022-12-18T09:59:33;72.27;;;24.27;;
7383;SDS011;3733;47.994;8.820;2022-12-18T10:02:10;75.50;;;25.60;;
7383;SDS011;3733;47.994;8.820;2022-12-18T10:04:43;69.83;;;24.70;;
7383;SDS011;3733;47.994;8.820;2022-12-18T10:07:18;64.50;;;22.00;;
7383;SDS011;3733;47.994;8.820;2022-12-18T10:10:01;79.53;;;25.77;;
7383;SDS011;3733;47.994;8.820;2022-12-18T10:12:42;73.17;;;22.40;;
7383;SDS011;3733;47.994;8.820;2022-12-18T10:18:03;106.97;;;36.13;;
7383;SDS011;3733;47.994;8.820;2022-12-18T10:20:46;79.87;;;28.03;;
7383;SDS011;3733;47.994;8.820;2022-12-18T10:26:05;77.80;;;26.90;;
7383;SDS011;3733;47.994;8.820;2022-12-18T10:28:34;69.40;;;23.30;;
7383;SDS011;3733;47.994;8.820;2022-12-18T10:31:02;63.53;;;22.90;;
7383;SDS011;3733;47.994;8.820;2022-12-18T10:33:30;66.80;;;24.10;;
7383;SDS011;3733;47.994;8.820;2022-12-18T10:35:57;65.13;;;23.90;;
7383;SDS011;3733;47.994;8.820;2022-12-18T10:38:25;65.90;;;23.87;;
7383;SDS011;3733;47.994;8.820;2022-12-18T10:40:53;65.73;;;23.93;;
7383;SDS011;3733;47.994;8.820;2022-12-18T10:43:20;75.93;;;24.73;;
7383;SDS011;3733;47.994;8.820;2022-12-18T10:48:33;75.93;;;24.60;;
7383;SDS011;3733;47.994;8.820;2022-12-18T10:51:16;72.30;;;26.57;;
7383;SDS011;3733;47.994;8.820;2022-12-18T10:54:02;75.87;;;25.70;;
7383;SDS011;3733;47.994;8.820;2022-12-18T10:56:39;76.37;;;26.17;;
7383;SDS011;3733;47.994;8.820;2022-12-18T10:59:06;67.47;;;25.40;;
7383;SDS011;3733;47.994;8.820;2022-12-18T11:04:26;64.57;;;24.23;;
7383;SDS011;3733;47.994;8.820;2022-12-18T11:09:23;71.70;;;22.47;;
7383;SDS011;3733;47.994;8.820;2022-12-18T11:11:57;69.57;;;24.60;;
7383;SDS011;3733;47.994;8.820;2022-12-18T11:14:26;65.57;;;24.13;;
7383;SDS011;3733;47.994;8.820;2022-12-18T11:16:53;74.93;;;24.57;;
7383;SDS011;3733;47.994;8.820;2022-12-18T11:19:32;63.00;;;23.20;;
7383;SDS011;3733;47.994;8.820;2022-12-18T11:22:00;65.13;;;23.63;;
7383;SDS011;3733;47.994;8.820;2022-12-18T11:24:31;69.60;;;23.53;;
7383;SDS011;3733;47.994;8.820;2022-12-18T11:27:03;68.47;;;23.30;;
7383;SDS011;3733;47.994;8.820;2022-12-18T11:29:37;65.50;;;22.37;;
7383;SDS011;3733;47.994;8.820;2022-12-18T11:37:43;64.57;;;22.50;;
7383;SDS011;3733;47.994;8.820;2022-12-18T11:40:17;63.40;;;22.17;;
7383;SDS011;3733;47.994;8.820;2022-12-18T11:43:49;66.93;;;25.00;;
7383;SDS011;3733;47.994;8.820;2022-12-18T11:45:51;74.43;;;25.77;;
7383;SDS011;3733;47.994;8.820;2022-12-18T11:48:24;72.37;;;25.97;;
7383;SDS011;3733;47.994;8.820;2022-12-18T11:50:55;72.23;;;25.70;;
7383;SDS011;3733;47.994;8.820;2022-12-18T11:53:24;75.73;;;26.30;;
7383;SDS011;3733;47.994;8.820;2022-12-18T11:58:58;66.63;;;24.20;;
7383;SDS011;3733;47.994;8.820;2022-12-18T12:10:05;70.63;;;24.83;;
7383;SDS011;3733;47.994;8.820;2022-12-18T12:20:49;82.53;;;28.67;;
7383;SDS011;3733;47.994;8.820;2022-12-18T12:23:36;70.20;;;24.70;;
7383;SDS011;3733;47.994;8.820;2022-12-18T12:26:08;77.40;;;26.93;;
7383;SDS011;3733;47.994;8.820;2022-12-18T12:39:56;77.87;;;27.10;;
7383;SDS011;3733;47.994;8.820;2022-12-18T12:45:06;77.07;;;26.70;;
7383;SDS011;3733;47.994;8.820;2022-12-18T12:47:43;73.93;;;25.43;;
7383;SDS011;3733;47.994;8.820;2022-12-18T12:50:14;70.00;;;26.30;;
7383;SDS011;3733;47.994;8.820;2022-12-18T12:52:47;74.90;;;25.40;;
7383;SDS011;3733;47.994;8.820;2022-12-18T12:55:36;68.53;;;25.00;;
7383;SDS011;3733;47.994;8.820;2022-12-18T12:58:48;70.43;;;25.90;;
7383;SDS011;3733;47.994;8.820;2022-12-18T13:01:16;80.37;;;29.13;;
7383;SDS011;3733;47.994;8.820;2022-12-18T13:09:15;71.10;;;25.90;;
7383;SDS011;3733;47.994;8.820;2022-12-18T13:14:30;79.03;;;25.63;;
7383;SDS011;3733;47.994;8.820;2022-12-18T13:20:02;71.30;;;24.50;;
7383;SDS011;3733;47.994;8.820;2022-12-18T13:22:31;78.53;;;29.50;;
7383;SDS011;3733;47.994;8.820;2022-12-18T13:25:03;63.90;;;24.27;;
7383;SDS011;3733;47.994;8.820;2022-12-18T13:30:41;63.10;;;23.37;;
7383;SDS011;3733;47.994;8.820;2022-12-18T13:36:23;68.20;;;25.30;;
7383;SDS011;3733;47.994;8.820;2022-12-18T13:38:37;67.83;;;25.50;;
7383;SDS011;3733;47.994;8.820;2022-12-18T13:41:14;64.87;;;24.00;;
7383;SDS011;3733;47.994;8.820;2022-12-18T13:43:54;61.37;;;23.10;;
7383;SDS011;3733;47.994;8.820;2022-12-18T13:46:57;67.87;;;24.83;;
7383;SDS011;3733;47.994;8.820;2022-12-18T13:49:24;62.40;;;24.30;;
7383;SDS011;3733;47.994;8.820;2022-12-18T13:52:22;62.27;;;25.20;;
7383;SDS011;3733;47.994;8.820;2022-12-18T13:54:53;68.80;;;24.70;;
7383;SDS011;3733;47.994;8.820;2022-12-18T13:57:28;58.70;;;22.70;;
7383;SDS011;3733;47.994;8.820;2022-12-18T13:59:59;76.47;;;26.00;;
7383;SDS011;3733;47.994;8.820;2022-12-18T14:02:49;74.63;;;25.83;;
7383;SDS011;3733;47.994;8.820;2022-12-18T14:05:26;64.87;;;25.23;;
7383;SDS011;3733;47.994;8.820;2022-12-18T14:07:54;63.53;;;23.80;;
7383;SDS011;3733;47.994;8.820;2022-12-18T14:10:23;69.03;;;23.73;;
7383;SDS011;3733;47.994;8.820;2022-12-18T14:12:49;66.80;;;24.53;;
7383;SDS011;3733;47.994;8.820;2022-12-18T14:17:57;56.70;;;22.90;;
7383;SDS011;3733;47.994;8.820;2022-12-18T14:20:26;62.50;;;24.20;;
7383;SDS011;3733;47.994;8.820;2022-12-18T14:22:54;72.37;;;26.27;;
7383;SDS011;3733;47.994;8.820;2022-12-18T14:25:22;66.10;;;23.83;;
7383;SDS011;3733;47.994;8.820;2022-12-18T14:30:28;62.37;;;24.03;;
7383;SDS011;3733;47.994;8.820;2022-12-18T14:35:36;70.30;;;25.30;;
7383;SDS011;3733;47.994;8.820;2022-12-18T14:40:41;76.43;;;26.53;;
7383;SDS011;3733;47.994;8.820;2022-12-18T14:43:11;67.10;;;25.33;;
7383;SDS011;3733;47.994;8.820;2022-12-18T14:45:38;69.63;;;25.80;;
7383;SDS011;3733;47.994;8.820;2022-12-18T14:50:36;64.33;;;24.47;;
7383;SDS011;3733;47.994;8.820;2022-12-18T14:53:02;85.83;;;26.70;;
7383;SDS011;3733;47.994;8.820;2022-12-18T14:55:28;61.90;;;24.27;;
7383;SDS011;3733;47.994;8.820;2022-12-18T14:57:54;85.67;;;27.63;;
7383;SDS011;3733;47.994;8.820;2022-12-18T15:00:22;72.47;;;27.17;;
7383;SDS011;3733;47.994;8.820;2022-12-18T15:02:50;70.80;;;27.27;;
7383;SDS011;3733;47.994;8.820;2022-12-18T15:07:52;71.90;;;30.00;;
7383;SDS011;3733;47.994;8.820;2022-12-18T15:10:26;71.43;;;24.93;;
7383;SDS011;3733;47.994;8.820;2022-12-18T15:20:55;77.67;;;27.30;;
7383;SDS011;3733;47.994;8.820;2022-12-18T15:26:11;85.30;;;27.97;;
7383;SDS011;3733;47.994;8.820;2022-12-18T15:36:24;76.53;;;28.33;;
7383;SDS011;3733;47.994;8.820;2022-12-18T15:38:55;87.60;;;29.07;;
7383;SDS011;3733;47.994;8.820;2022-12-18T15:41:22;83.33;;;27.50;;
7383;SDS011;3733;47.994;8.820;2022-12-18T15:43:49;76.63;;;29.50;;
7383;SDS011;3733;47.994;8.820;2022-12-18T15:46:17;74.33;;;29.40;;
7383;SDS011;3733;47.994;8.820;2022-12-18T15:48:46;91.97;;;29.10;;
7383;SDS011;3733;47.994;8.820;2022-12-18T15:51:23;73.23;;;28.67;;
7383;SDS011;3733;47.994;8.820;2022-12-18T15:53:55;69.57;;;27.30;;
7383;SDS011;3733;47.994;8.820;2022-12-18T15:56:23;74.13;;;29.40;;
7383;SDS011;3733;47.994;8.820;2022-12-18T15:59:11;82.07;;;30.73;;
7383;SDS011;3733;47.994;8.820;2022-12-18T16:01:48;92.03;;;28.90;;
7383;SDS011;3733;47.994;8.820;2022-12-18T16:04:16;71.53;;;28.13;;
7383;SDS011;3733;47.994;8.820;2022-12-18T16:06:45;88.03;;;28.10;;
7383;SDS011;3733;47.994;8.820;2022-12-18T16:09:11;79.00;;;29.60;;
7383;SDS011;3733;47.994;8.820;2022-12-18T16:11:37;65.63;;;26.10;;
7383;SDS011;3733;47.994;8.820;2022-12-18T16:16:42;85.00;;;27.07;;
7383;SDS011;3733;47.994;8.820;2022-12-18T16:19:07;73.13;;;26.50;;
7383;SDS011;3733;47.994;8.820;2022-12-18T16:21:33;79.77;;;26.30;;
7383;SDS011;3733;47.994;8.820;2022-12-18T16:23:59;65.10;;;25.30;;
7383;SDS011;3733;47.994;8.820;2022-12-18T16:26:24;85.77;;;31.27;;
7383;SDS011;3733;47.994;8.820;2022-12-18T16:28:50;90.83;;;30.57;;
7383;SDS011;3733;47.994;8.820;2022-12-18T16:31:16;91.00;;;32.90;;
7383;SDS011;3733;47.994;8.820;2022-12-18T16:33:41;104.10;;;34.47;;
7383;SDS011;3733;47.994;8.820;2022-12-18T16:36:07;124.30;;;38.30;;
7383;SDS011;3733;47.994;8.820;2022-12-18T16:38:33;73.50;;;27.47;;
7383;SDS011;3733;47.994;8.820;2022-12-18T16:40:58;76.97;;;28.20;;
7383;SDS011;3733;47.994;8.820;2022-12-18T16:43:42;70.47;;;26.13;;
7383;SDS011;3733;47.994;8.820;2022-12-18T16:46:08;77.90;;;26.40;;
7383;SDS011;3733;47.994;8.820;2022-12-18T16:48:34;79.00;;;28.00;;
7383;SDS011;3733;47.994;8.820;2022-12-18T16:51:03;84.70;;;26.47;;
7383;SDS011;3733;47.994;8.820;2022-12-18T16:53:30;75.93;;;27.83;;
7383;SDS011;3733;47.994;8.820;2022-12-18T16:55:57;74.10;;;29.00;;
7383;SDS011;3733;47.994;8.820;2022-12-18T16:58:23;80.90;;;28.27;;
7383;SDS011;3733;47.994;8.820;2022-12-18T17:00:48;77.13;;;28.60;;
7383;SDS011;3733;47.994;8.820;2022-12-18T17:03:14;84.67;;;27.00;;
7383;SDS011;3733;47.994;8.820;2022-12-18T17:05:39;86.83;;;27.53;;
7383;SDS011;3733;47.994;8.820;2022-12-18T17:08:05;77.63;;;28.17;;
7383;SDS011;3733;47.994;8.820;2022-12-18T17:10:31;74.20;;;25.50;;
7383;SDS011;3733;47.994;8.820;2022-12-18T17:12:59;79.20;;;28.10;;
7383;SDS011;3733;47.994;8.820;2022-12-18T17:15:25;70.23;;;26.73;;
7383;SDS011;3733;47.994;8.820;2022-12-18T17:17:51;66.47;;;24.60;;
7383;SDS011;3733;47.994;8.820;2022-12-18T17:20:16;70.70;;;25.73;;
7383;SDS011;3733;47.994;8.820;2022-12-18T17:22:42;69.87;;;25.33;;
7383;SDS011;3733;47.994;8.820;2022-12-18T17:25:08;80.87;;;26.93;;
7383;SDS011;3733;47.994;8.820;2022-12-18T17:27:33;84.67;;;29.27;;
7383;SDS011;3733;47.994;8.820;2022-12-18T17:29:59;71.27;;;26.13;;
7383;SDS011;3733;47.994;8.820;2022-12-18T17:32:25;71.53;;;25.70;;